sensor_id;sensor_type;location;lat;lon;timestamp;P1;durP1;ratioP1;P2;durP2;ratioP2
74483;SDS011;62942;52.462;10.846;2023-04-03T00:00:32;1.7;;;5.9;;
74483;SDS011;62942;52.462;10.846;2023-04-03T00:01:32;1.6;;;5.5;;
74483;SDS011;62942;52.462;10.846;2023-04-03T00:02:42;1.9;;;6.2;;
74483;SDS011;62942;52.462;10.846;2023-04-03T00:03:42;1.8;;;7.1;;
74483;SDS011;62942;52.462;10.846;2023-04-03T00:04:52;1.6;;;6.4;;
74483;SDS011;62942;52.462;10.846;2023-04-03T00:06:02;1.8;;;6.2;;
74483;SDS011;62942;52.462;10.846;2023-04-03T00:07:02;1.8;;;7.3;;
74483;SDS011;62942;52.462;10.846;2023-04-03T00:08:12;2;;;6;;
74483;SDS011;62942;52.462;10.846;2023-04-03T00:09:22;1.8;;;6.3;;
74483;SDS011;62942;52.462;10.846;2023-04-03T00:10:22;1.8;;;6.6;;
74483;SDS011;62942;52.462;10.846;2023-04-03T00:11:32;1.8;;;7.4;;
74483;SDS011;62942;52.462;10.846;2023-04-03T00:12:32;2.2;;;7;;
74483;SDS011;62942;52.462;10.846;2023-04-03T00:13:42;1.7;;;6.6;;
74483;SDS011;62942;52.462;10.846;2023-04-03T00:14:52;1.9;;;6.1;;
74483;SDS011;62942;52.462;10.846;2023-04-03T00:15:52;2;;;7.8;;
74483;SDS011;62942;52.462;10.846;2023-04-03T00:17:02;1.6;;;6.4;;
74483;SDS011;62942;52.462;10.846;2023-04-03T00:18:12;1.8;;;6.5;;
74483;SDS011;62942;52.462;10.846;2023-04-03T00:19:22;2;;;7.7;;
74483;SDS011;62942;52.462;10.846;2023-04-03T00:20:22;2.1;;;7.3;;
74483;SDS011;62942;52.462;10.846;2023-04-03T00:21:32;2;;;8.6;;
74483;SDS011;62942;52.462;10.846;2023-04-03T00:22:32;2.3;;;7.7;;
74483;SDS011;62942;52.462;10.846;2023-04-03T00:23:42;2.5;;;7.2;;
74483;SDS011;62942;52.462;10.846;2023-04-03T00:24:52;2.8;;;8.5;;
74483;SDS011;62942;52.462;10.846;2023-04-03T00:25:52;3;;;8;;
74483;SDS011;62942;52.462;10.846;2023-04-03T00:27:02;3.1;;;8.7;;
74483;SDS011;62942;52.462;10.846;2023-04-03T00:28:12;3.3;;;9.3;;
74483;SDS011;62942;52.462;10.846;2023-04-03T00:29:12;3.3;;;9.4;;
74483;SDS011;62942;52.462;10.846;2023-04-03T00:30:22;3.1;;;8.5;;
74483;SDS011;62942;52.462;10.846;2023-04-03T00:31:22;3.1;;;8.9;;
74483;SDS011;62942;52.462;10.846;2023-04-03T00:32:32;3.1;;;10.4;;
74483;SDS011;62942;52.462;10.846;2023-04-03T00:33:32;3.3;;;10.5;;
74483;SDS011;62942;52.462;10.846;2023-04-03T00:34:42;2.7;;;8.2;;
74483;SDS011;62942;52.462;10.846;2023-04-03T00:35:52;2.6;;;7.6;;
74483;SDS011;62942;52.462;10.846;2023-04-03T00:36:52;2.4;;;7.2;;
74483;SDS011;62942;52.462;10.846;2023-04-03T00:38:02;2.4;;;8.1;;
74483;SDS011;62942;52.462;10.846;2023-04-03T00:39:12;2.2;;;8.3;;
74483;SDS011;62942;52.462;10.846;2023-04-03T00:40:12;2.2;;;7;;
74483;SDS011;62942;52.462;10.846;2023-04-03T00:41:22;2.5;;;8.1;;
74483;SDS011;62942;52.462;10.846;2023-04-03T00:42:31;2;;;6;;
74483;SDS011;62942;52.462;10.846;2023-04-03T00:43:32;2;;;6.8;;
74483;SDS011;62942;52.462;10.846;2023-04-03T00:45:47;2.1;;;6;;
74483;SDS011;62942;52.462;10.846;2023-04-03T00:45:52;2;;;6.8;;
74483;SDS011;62942;52.462;10.846;2023-04-03T00:46:52;2;;;7;;
74483;SDS011;62942;52.462;10.846;2023-04-03T00:48:02;1.8;;;6.3;;
74483;SDS011;62942;52.462;10.846;2023-04-03T00:49:12;2;;;6.3;;
74483;SDS011;62942;52.462;10.846;2023-04-03T00:50:12;2;;;6.3;;
74483;SDS011;62942;52.462;10.846;2023-04-03T00:51:22;1.8;;;7;;
74483;SDS011;62942;52.462;10.846;2023-04-03T00:52:32;2;;;6.4;;
74483;SDS011;62942;52.462;10.846;2023-04-03T00:53:43;1.9;;;7;;
74483;SDS011;62942;52.462;10.846;2023-04-03T00:54:52;2;;;7;;
74483;SDS011;62942;52.462;10.846;2023-04-03T00:55:52;1.8;;;7.9;;
74483;SDS011;62942;52.462;10.846;2023-04-03T00:57:02;2.2;;;9.3;;
74483;SDS011;62942;52.462;10.846;2023-04-03T00:58:12;1.8;;;6.4;;
74483;SDS011;62942;52.462;10.846;2023-04-03T00:59:22;1.8;;;5.6;;
74483;SDS011;62942;52.462;10.846;2023-04-03T01:00:32;2;;;8.1;;
74483;SDS011;62942;52.462;10.846;2023-04-03T01:01:32;1.9;;;6.6;;
74483;SDS011;62942;52.462;10.846;2023-04-03T01:02:41;1.9;;;6.1;;
74483;SDS011;62942;52.462;10.846;2023-04-03T01:03:41;1.7;;;5.4;;
74483;SDS011;62942;52.462;10.846;2023-04-03T01:04:51;2.2;;;9.6;;
74483;SDS011;62942;52.462;10.846;2023-04-03T01:05:52;1.9;;;9.1;;
74483;SDS011;62942;52.462;10.846;2023-04-03T01:07:02;2;;;6.4;;
74483;SDS011;62942;52.462;10.846;2023-04-03T01:08:01;1.9;;;8.6;;
74483;SDS011;62942;52.462;10.846;2023-04-03T01:09:11;1.8;;;7.1;;
74483;SDS011;62942;52.462;10.846;2023-04-03T01:10:12;1.8;;;7.4;;
74483;SDS011;62942;52.462;10.846;2023-04-03T01:11:22;1.8;;;5.4;;
74483;SDS011;62942;52.462;10.846;2023-04-03T01:12:22;1.8;;;6.3;;
74483;SDS011;62942;52.462;10.846;2023-04-03T01:13:32;2;;;6;;
74483;SDS011;62942;52.462;10.846;2023-04-03T01:14:31;1.8;;;6.2;;
74483;SDS011;62942;52.462;10.846;2023-04-03T01:15:41;1.8;;;7.1;;
74483;SDS011;62942;52.462;10.846;2023-04-03T01:16:41;2;;;7.7;;
74483;SDS011;62942;52.462;10.846;2023-04-03T01:17:42;1.7;;;7.5;;
74483;SDS011;62942;52.462;10.846;2023-04-03T01:18:51;1.9;;;7.1;;
74483;SDS011;62942;52.462;10.846;2023-04-03T01:21:17;2;;;7.3;;
74483;SDS011;62942;52.462;10.846;2023-04-03T01:22:15;1.8;;;8.9;;
74483;SDS011;62942;52.462;10.846;2023-04-03T01:23:17;2;;;7.1;;
74483;SDS011;62942;52.462;10.846;2023-04-03T01:24:26;1.9;;;7.5;;
74483;SDS011;62942;52.462;10.846;2023-04-03T01:25:22;2;;;7.5;;
74483;SDS011;62942;52.462;10.846;2023-04-03T01:26:32;1.7;;;6.2;;
74483;SDS011;62942;52.462;10.846;2023-04-03T01:27:41;1.8;;;5.6;;
74483;SDS011;62942;52.462;10.846;2023-04-03T01:28:42;2.1;;;8;;
74483;SDS011;62942;52.462;10.846;2023-04-03T01:29:51;1.7;;;6.6;;
74483;SDS011;62942;52.462;10.846;2023-04-03T01:30:53;2.1;;;11.3;;
74483;SDS011;62942;52.462;10.846;2023-04-03T01:32:02;2.1;;;8.3;;
74483;SDS011;62942;52.462;10.846;2023-04-03T01:33:01;1.7;;;5.6;;
74483;SDS011;62942;52.462;10.846;2023-04-03T01:34:11;2;;;7.7;;
74483;SDS011;62942;52.462;10.846;2023-04-03T01:35:12;1.9;;;7.3;;
74483;SDS011;62942;52.462;10.846;2023-04-03T01:36:22;2.2;;;8.7;;
74483;SDS011;62942;52.462;10.846;2023-04-03T01:37:21;1.7;;;7.3;;
74483;SDS011;62942;52.462;10.846;2023-04-03T01:38:31;1.9;;;7.4;;
74483;SDS011;62942;52.462;10.846;2023-04-03T01:39:41;2.1;;;8.1;;
74483;SDS011;62942;52.462;10.846;2023-04-03T01:40:41;1.9;;;6.8;;
74483;SDS011;62942;52.462;10.846;2023-04-03T01:41:51;1.8;;;6.4;;
74483;SDS011;62942;52.462;10.846;2023-04-03T01:43:01;1.9;;;7.5;;
74483;SDS011;62942;52.462;10.846;2023-04-03T01:44:02;2.1;;;7.8;;
74483;SDS011;62942;52.462;10.846;2023-04-03T01:45:11;1.8;;;6.5;;
74483;SDS011;62942;52.462;10.846;2023-04-03T01:46:21;1.9;;;6.5;;
74483;SDS011;62942;52.462;10.846;2023-04-03T01:47:22;2.1;;;7.2;;
74483;SDS011;62942;52.462;10.846;2023-04-03T01:48:31;1.9;;;6.6;;
74483;SDS011;62942;52.462;10.846;2023-04-03T01:49:41;1.9;;;6.4;;
74483;SDS011;62942;52.462;10.846;2023-04-03T01:50:51;1.9;;;6.1;;
74483;SDS011;62942;52.462;10.846;2023-04-03T01:51:51;1.9;;;8.3;;
74483;SDS011;62942;52.462;10.846;2023-04-03T01:53:01;2.1;;;7.8;;
74483;SDS011;62942;52.462;10.846;2023-04-03T01:54:01;2;;;8.2;;
74483;SDS011;62942;52.462;10.846;2023-04-03T01:55:11;2;;;6.5;;
74483;SDS011;62942;52.462;10.846;2023-04-03T01:56:11;2.1;;;8.5;;
74483;SDS011;62942;52.462;10.846;2023-04-03T01:57:21;1.7;;;7.6;;
74483;SDS011;62942;52.462;10.846;2023-04-03T01:58:21;1.8;;;7.2;;
74483;SDS011;62942;52.462;10.846;2023-04-03T01:59:31;2.1;;;5.9;;
74483;SDS011;62942;52.462;10.846;2023-04-03T02:00:31;2.1;;;9.2;;
74483;SDS011;62942;52.462;10.846;2023-04-03T02:01:41;2.3;;;8.4;;
74483;SDS011;62942;52.462;10.846;2023-04-03T02:02:41;1.9;;;6.6;;
74483;SDS011;62942;52.462;10.846;2023-04-03T02:03:51;1.9;;;8.2;;
74483;SDS011;62942;52.462;10.846;2023-04-03T02:04:51;2;;;8.4;;
74483;SDS011;62942;52.462;10.846;2023-04-03T02:06:01;1.7;;;7.3;;
74483;SDS011;62942;52.462;10.846;2023-04-03T02:07:01;2;;;9.2;;
74483;SDS011;62942;52.462;10.846;2023-04-03T02:08:11;1.8;;;6.6;;
74483;SDS011;62942;52.462;10.846;2023-04-03T02:09:12;2.1;;;8;;
74483;SDS011;62942;52.462;10.846;2023-04-03T02:10:21;1.7;;;5.4;;
74483;SDS011;62942;52.462;10.846;2023-04-03T02:11:31;1.7;;;5.6;;
74483;SDS011;62942;52.462;10.846;2023-04-03T02:12:31;2;;;7.8;;
74483;SDS011;62942;52.462;10.846;2023-04-03T02:13:41;1.9;;;6;;
74483;SDS011;62942;52.462;10.846;2023-04-03T02:14:41;1.6;;;5.6;;
74483;SDS011;62942;52.462;10.846;2023-04-03T02:15:51;1.7;;;6;;
74483;SDS011;62942;52.462;10.846;2023-04-03T02:16:51;1.8;;;7.4;;
74483;SDS011;62942;52.462;10.846;2023-04-03T02:18:01;1.7;;;7.3;;
74483;SDS011;62942;52.462;10.846;2023-04-03T02:19:11;1.9;;;7.3;;
74483;SDS011;62942;52.462;10.846;2023-04-03T02:20:11;1.8;;;7.6;;
74483;SDS011;62942;52.462;10.846;2023-04-03T02:21:21;1.9;;;7.5;;
74483;SDS011;62942;52.462;10.846;2023-04-03T02:22:31;2;;;7.4;;
74483;SDS011;62942;52.462;10.846;2023-04-03T02:23:41;1.9;;;7.8;;
74483;SDS011;62942;52.462;10.846;2023-04-03T02:24:51;1.9;;;8;;
74483;SDS011;62942;52.462;10.846;2023-04-03T02:25:51;1.9;;;7.3;;
74483;SDS011;62942;52.462;10.846;2023-04-03T02:27:01;2;;;7.5;;
74483;SDS011;62942;52.462;10.846;2023-04-03T02:28:11;1.8;;;8.1;;
74483;SDS011;62942;52.462;10.846;2023-04-03T02:29:11;1.9;;;7.2;;
74483;SDS011;62942;52.462;10.846;2023-04-03T02:30:21;1.9;;;7.2;;
74483;SDS011;62942;52.462;10.846;2023-04-03T02:31:21;2;;;7.2;;
74483;SDS011;62942;52.462;10.846;2023-04-03T02:32:31;1.8;;;6.8;;
74483;SDS011;62942;52.462;10.846;2023-04-03T02:33:41;2;;;6.4;;
74483;SDS011;62942;52.462;10.846;2023-04-03T02:34:41;1.9;;;7.9;;
74483;SDS011;62942;52.462;10.846;2023-04-03T02:35:52;2;;;6.1;;
74483;SDS011;62942;52.462;10.846;2023-04-03T02:36:51;1.8;;;7.5;;
74483;SDS011;62942;52.462;10.846;2023-04-03T02:38:01;2;;;7;;
74483;SDS011;62942;52.462;10.846;2023-04-03T02:39:02;2.1;;;7.8;;
74483;SDS011;62942;52.462;10.846;2023-04-03T02:40:02;1.8;;;5.6;;
74483;SDS011;62942;52.462;10.846;2023-04-03T02:41:12;1.8;;;6.5;;
74483;SDS011;62942;52.462;10.846;2023-04-03T02:42:21;2;;;7.9;;
74483;SDS011;62942;52.462;10.846;2023-04-03T02:43:31;1.9;;;6.6;;
74483;SDS011;62942;52.462;10.846;2023-04-03T02:44:31;2;;;7.8;;
74483;SDS011;62942;52.462;10.846;2023-04-03T02:45:41;1.8;;;6.3;;
74483;SDS011;62942;52.462;10.846;2023-04-03T02:46:41;1.8;;;7.4;;
74483;SDS011;62942;52.462;10.846;2023-04-03T02:47:51;1.7;;;6.3;;
74483;SDS011;62942;52.462;10.846;2023-04-03T02:49:02;1.9;;;8;;
74483;SDS011;62942;52.462;10.846;2023-04-03T02:50:11;1.9;;;7.7;;
74483;SDS011;62942;52.462;10.846;2023-04-03T02:51:11;1.9;;;7.4;;
74483;SDS011;62942;52.462;10.846;2023-04-03T02:52:21;1.6;;;5.9;;
74483;SDS011;62942;52.462;10.846;2023-04-03T02:53:21;1.7;;;7.5;;
74483;SDS011;62942;52.462;10.846;2023-04-03T02:54:31;2;;;7.7;;
74483;SDS011;62942;52.462;10.846;2023-04-03T02:55:41;1.8;;;7.6;;
74483;SDS011;62942;52.462;10.846;2023-04-03T02:56:41;1.9;;;7.2;;
74483;SDS011;62942;52.462;10.846;2023-04-03T02:57:51;2;;;9;;
74483;SDS011;62942;52.462;10.846;2023-04-03T02:59:01;1.9;;;6.9;;
74483;SDS011;62942;52.462;10.846;2023-04-03T03:00:02;1.9;;;6.2;;
74483;SDS011;62942;52.462;10.846;2023-04-03T03:01:11;1.9;;;7.2;;
74483;SDS011;62942;52.462;10.846;2023-04-03T03:02:11;1.9;;;6.3;;
74483;SDS011;62942;52.462;10.846;2023-04-03T03:03:21;2.1;;;7.5;;
74483;SDS011;62942;52.462;10.846;2023-04-03T03:04:31;1.6;;;7.7;;
74483;SDS011;62942;52.462;10.846;2023-04-03T03:05:31;2.1;;;9.1;;
74483;SDS011;62942;52.462;10.846;2023-04-03T03:06:41;2.2;;;9.6;;
74483;SDS011;62942;52.462;10.846;2023-04-03T03:07:51;1.8;;;6.8;;
74483;SDS011;62942;52.462;10.846;2023-04-03T03:09:01;1.9;;;6.7;;
74483;SDS011;62942;52.462;10.846;2023-04-03T03:10:01;1.6;;;6.3;;
74483;SDS011;62942;52.462;10.846;2023-04-03T03:11:11;1.8;;;6.9;;
74483;SDS011;62942;52.462;10.846;2023-04-03T03:12:11;2;;;8;;
74483;SDS011;62942;52.462;10.846;2023-04-03T03:13:11;2;;;7.9;;
74483;SDS011;62942;52.462;10.846;2023-04-03T03:14:21;1.9;;;7.5;;
74483;SDS011;62942;52.462;10.846;2023-04-03T03:15:21;2;;;7;;
74483;SDS011;62942;52.462;10.846;2023-04-03T03:16:21;1.9;;;6.2;;
74483;SDS011;62942;52.462;10.846;2023-04-03T03:17:31;2;;;6.1;;
74483;SDS011;62942;52.462;10.846;2023-04-03T03:18:41;2.1;;;10;;
74483;SDS011;62942;52.462;10.846;2023-04-03T03:19:41;1.9;;;6.9;;
74483;SDS011;62942;52.462;10.846;2023-04-03T03:20:41;2;;;8;;
74483;SDS011;62942;52.462;10.846;2023-04-03T03:21:51;2;;;7.6;;
74483;SDS011;62942;52.462;10.846;2023-04-03T03:23:01;1.8;;;5.7;;
74483;SDS011;62942;52.462;10.846;2023-04-03T03:24:01;2.1;;;7.5;;
74483;SDS011;62942;52.462;10.846;2023-04-03T03:25:01;2;;;7.6;;
74483;SDS011;62942;52.462;10.846;2023-04-03T03:26:02;1.8;;;7.8;;
74483;SDS011;62942;52.462;10.846;2023-04-03T03:27:11;1.9;;;7.7;;
74483;SDS011;62942;52.462;10.846;2023-04-03T03:28:11;1.9;;;6.4;;
74483;SDS011;62942;52.462;10.846;2023-04-03T03:29:21;2;;;7;;
74483;SDS011;62942;52.462;10.846;2023-04-03T03:30:21;1.9;;;8.4;;
74483;SDS011;62942;52.462;10.846;2023-04-03T03:31:31;2.2;;;6.8;;
74483;SDS011;62942;52.462;10.846;2023-04-03T03:32:31;2.2;;;8.4;;
74483;SDS011;62942;52.462;10.846;2023-04-03T03:33:41;2.3;;;7.2;;
74483;SDS011;62942;52.462;10.846;2023-04-03T03:34:51;2.2;;;8.3;;
74483;SDS011;62942;52.462;10.846;2023-04-03T03:35:51;2.3;;;8.9;;
74483;SDS011;62942;52.462;10.846;2023-04-03T03:36:51;2.3;;;7.7;;
74483;SDS011;62942;52.462;10.846;2023-04-03T03:38:01;1.9;;;7.1;;
74483;SDS011;62942;52.462;10.846;2023-04-03T03:39:01;2.1;;;9;;
74483;SDS011;62942;52.462;10.846;2023-04-03T03:40:11;2.4;;;9.1;;
74483;SDS011;62942;52.462;10.846;2023-04-03T03:41:21;2.3;;;8.7;;
74483;SDS011;62942;52.462;10.846;2023-04-03T03:42:21;2.2;;;9.6;;
74483;SDS011;62942;52.462;10.846;2023-04-03T03:43:21;2.1;;;8.9;;
74483;SDS011;62942;52.462;10.846;2023-04-03T03:44:31;2.1;;;7.5;;
74483;SDS011;62942;52.462;10.846;2023-04-03T03:45:31;2.1;;;7.2;;
74483;SDS011;62942;52.462;10.846;2023-04-03T03:46:31;2.7;;;10.2;;
74483;SDS011;62942;52.462;10.846;2023-04-03T03:47:41;2.2;;;7.1;;
74483;SDS011;62942;52.462;10.846;2023-04-03T03:48:51;2.4;;;7.7;;
74483;SDS011;62942;52.462;10.846;2023-04-03T03:49:51;2.4;;;9.3;;
74483;SDS011;62942;52.462;10.846;2023-04-03T03:51:01;2.1;;;7.8;;
74483;SDS011;62942;52.462;10.846;2023-04-03T03:52:01;2;;;5.9;;
74483;SDS011;62942;52.462;10.846;2023-04-03T03:53:11;2.5;;;10.1;;
74483;SDS011;62942;52.462;10.846;2023-04-03T03:54:11;2.3;;;8.7;;
74483;SDS011;62942;52.462;10.846;2023-04-03T03:55:11;2.3;;;9.7;;
74483;SDS011;62942;52.462;10.846;2023-04-03T03:56:21;2.3;;;8;;
74483;SDS011;62942;52.462;10.846;2023-04-03T03:57:31;2.1;;;7.6;;
74483;SDS011;62942;52.462;10.846;2023-04-03T03:58:41;2.3;;;9.6;;
74483;SDS011;62942;52.462;10.846;2023-04-03T03:59:51;2.4;;;9;;
74483;SDS011;62942;52.462;10.846;2023-04-03T04:00:51;2.5;;;8.5;;
74483;SDS011;62942;52.462;10.846;2023-04-03T04:02:01;2.1;;;8;;
74483;SDS011;62942;52.462;10.846;2023-04-03T04:03:11;2.3;;;7.4;;
74483;SDS011;62942;52.462;10.846;2023-04-03T04:04:21;2;;;8.4;;
74483;SDS011;62942;52.462;10.846;2023-04-03T04:05:21;2;;;7.2;;
74483;SDS011;62942;52.462;10.846;2023-04-03T04:06:31;2.5;;;9.5;;
74483;SDS011;62942;52.462;10.846;2023-04-03T04:07:31;2.3;;;8.7;;
74483;SDS011;62942;52.462;10.846;2023-04-03T04:08:31;2.2;;;8;;
74483;SDS011;62942;52.462;10.846;2023-04-03T04:09:41;2.4;;;9.8;;
74483;SDS011;62942;52.462;10.846;2023-04-03T04:10:41;2.3;;;9.9;;
74483;SDS011;62942;52.462;10.846;2023-04-03T04:11:41;2.4;;;9.2;;
74483;SDS011;62942;52.462;10.846;2023-04-03T04:12:51;2.4;;;9.4;;
74483;SDS011;62942;52.462;10.846;2023-04-03T04:13:51;2.2;;;8;;
74483;SDS011;62942;52.462;10.846;2023-04-03T04:14:51;2.3;;;10.2;;
74483;SDS011;62942;52.462;10.846;2023-04-03T04:16:01;2.1;;;7.8;;
74483;SDS011;62942;52.462;10.846;2023-04-03T04:17:01;2.4;;;7.6;;
74483;SDS011;62942;52.462;10.846;2023-04-03T04:18:01;2.4;;;10.4;;
74483;SDS011;62942;52.462;10.846;2023-04-03T04:19:11;2.6;;;11.5;;
74483;SDS011;62942;52.462;10.846;2023-04-03T04:20:11;2.4;;;8.1;;
74483;SDS011;62942;52.462;10.846;2023-04-03T04:21:11;2.5;;;10.8;;
74483;SDS011;62942;52.462;10.846;2023-04-03T04:22:21;2.3;;;8.2;;
74483;SDS011;62942;52.462;10.846;2023-04-03T04:23:21;2.2;;;8.9;;
74483;SDS011;62942;52.462;10.846;2023-04-03T04:24:21;1.9;;;8;;
74483;SDS011;62942;52.462;10.846;2023-04-03T04:25:21;2.4;;;8.4;;
74483;SDS011;62942;52.462;10.846;2023-04-03T04:26:31;2.3;;;8.8;;
74483;SDS011;62942;52.462;10.846;2023-04-03T04:27:31;2.7;;;9.6;;
74483;SDS011;62942;52.462;10.846;2023-04-03T04:28:31;2.1;;;7;;
74483;SDS011;62942;52.462;10.846;2023-04-03T04:29:31;2.5;;;8.1;;
74483;SDS011;62942;52.462;10.846;2023-04-03T04:30:41;2.1;;;8.7;;
74483;SDS011;62942;52.462;10.846;2023-04-03T04:31:51;2.4;;;10.7;;
74483;SDS011;62942;52.462;10.846;2023-04-03T04:33:01;2.5;;;7.9;;
74483;SDS011;62942;52.462;10.846;2023-04-03T04:34:01;2.5;;;7.5;;
74483;SDS011;62942;52.462;10.846;2023-04-03T04:35:01;2.4;;;8;;
74483;SDS011;62942;52.462;10.846;2023-04-03T04:36:11;2.5;;;8.1;;
74483;SDS011;62942;52.462;10.846;2023-04-03T04:37:21;2.3;;;8.9;;
74483;SDS011;62942;52.462;10.846;2023-04-03T04:38:31;2.5;;;7.7;;
74483;SDS011;62942;52.462;10.846;2023-04-03T04:39:31;2.5;;;9.1;;
74483;SDS011;62942;52.462;10.846;2023-04-03T04:40:31;2.4;;;7.5;;
74483;SDS011;62942;52.462;10.846;2023-04-03T04:41:31;2.7;;;9.5;;
74483;SDS011;62942;52.462;10.846;2023-04-03T04:42:41;2.4;;;9;;
74483;SDS011;62942;52.462;10.846;2023-04-03T04:43:52;2.4;;;9.5;;
74483;SDS011;62942;52.462;10.846;2023-04-03T04:44:51;2.4;;;9.6;;
74483;SDS011;62942;52.462;10.846;2023-04-03T04:46:02;2.2;;;7.7;;
74483;SDS011;62942;52.462;10.846;2023-04-03T04:47:11;2.3;;;9.8;;
74483;SDS011;62942;52.462;10.846;2023-04-03T04:48:11;2.4;;;8.1;;
74483;SDS011;62942;52.462;10.846;2023-04-03T04:49:11;2.7;;;8.5;;
74483;SDS011;62942;52.462;10.846;2023-04-03T04:50:11;2.8;;;11.1;;
74483;SDS011;62942;52.462;10.846;2023-04-03T04:51:21;2.4;;;9;;
74483;SDS011;62942;52.462;10.846;2023-04-03T04:52:21;2.4;;;9.3;;
74483;SDS011;62942;52.462;10.846;2023-04-03T04:53:31;2.4;;;10;;
74483;SDS011;62942;52.462;10.846;2023-04-03T04:54:31;2.5;;;9.3;;
74483;SDS011;62942;52.462;10.846;2023-04-03T04:55:31;2.3;;;8.4;;
74483;SDS011;62942;52.462;10.846;2023-04-03T04:56:41;2.6;;;7.9;;
74483;SDS011;62942;52.462;10.846;2023-04-03T04:57:41;2.3;;;9.2;;
74483;SDS011;62942;52.462;10.846;2023-04-03T04:58:51;2.4;;;9.9;;
74483;SDS011;62942;52.462;10.846;2023-04-03T04:59:51;2.8;;;9.3;;
74483;SDS011;62942;52.462;10.846;2023-04-03T05:00:57;2.7;;;9.1;;
74483;SDS011;62942;52.462;10.846;2023-04-03T05:02:01;2.4;;;7.8;;
74483;SDS011;62942;52.462;10.846;2023-04-03T05:03:01;2.4;;;7.9;;
74483;SDS011;62942;52.462;10.846;2023-04-03T05:04:01;2.4;;;7.4;;
74483;SDS011;62942;52.462;10.846;2023-04-03T05:05:01;2.6;;;9.9;;
74483;SDS011;62942;52.462;10.846;2023-04-03T05:06:11;2.3;;;8;;
74483;SDS011;62942;52.462;10.846;2023-04-03T05:07:21;2.6;;;8.5;;
74483;SDS011;62942;52.462;10.846;2023-04-03T05:08:21;2.5;;;10.4;;
74483;SDS011;62942;52.462;10.846;2023-04-03T05:09:31;2.7;;;11.6;;
74483;SDS011;62942;52.462;10.846;2023-04-03T05:10:41;2.6;;;7;;
74483;SDS011;62942;52.462;10.846;2023-04-03T05:11:51;2.4;;;8.1;;
74483;SDS011;62942;52.462;10.846;2023-04-03T05:13:01;2.3;;;8.8;;
74483;SDS011;62942;52.462;10.846;2023-04-03T05:14:11;2.8;;;9.4;;
74483;SDS011;62942;52.462;10.846;2023-04-03T05:15:21;2.5;;;8.9;;
74483;SDS011;62942;52.462;10.846;2023-04-03T05:16:31;2.8;;;9.4;;
74483;SDS011;62942;52.462;10.846;2023-04-03T05:17:31;2.5;;;9.6;;
74483;SDS011;62942;52.462;10.846;2023-04-03T05:18:41;2.7;;;8.9;;
74483;SDS011;62942;52.462;10.846;2023-04-03T05:19:51;2.7;;;8.3;;
74483;SDS011;62942;52.462;10.846;2023-04-03T05:20:51;2.5;;;11;;
74483;SDS011;62942;52.462;10.846;2023-04-03T05:22:01;2.8;;;8;;
74483;SDS011;62942;52.462;10.846;2023-04-03T05:23:01;2.8;;;9.6;;
74483;SDS011;62942;52.462;10.846;2023-04-03T05:24:01;2.6;;;8.7;;
74483;SDS011;62942;52.462;10.846;2023-04-03T05:25:01;2.6;;;8.5;;
74483;SDS011;62942;52.462;10.846;2023-04-03T05:26:11;2.5;;;8.8;;
74483;SDS011;62942;52.462;10.846;2023-04-03T05:27:11;2.6;;;7.7;;
74483;SDS011;62942;52.462;10.846;2023-04-03T05:28:11;2.5;;;9.2;;
74483;SDS011;62942;52.462;10.846;2023-04-03T05:29:11;2.4;;;9.2;;
74483;SDS011;62942;52.462;10.846;2023-04-03T05:30:21;2.6;;;9.8;;
74483;SDS011;62942;52.462;10.846;2023-04-03T05:31:31;2.1;;;8;;
74483;SDS011;62942;52.462;10.846;2023-04-03T05:32:31;2.4;;;8.2;;
74483;SDS011;62942;52.462;10.846;2023-04-03T05:33:41;2.5;;;10.1;;
74483;SDS011;62942;52.462;10.846;2023-04-03T05:34:51;2.7;;;11.3;;
74483;SDS011;62942;52.462;10.846;2023-04-03T05:36:02;2.3;;;9.2;;
74483;SDS011;62942;52.462;10.846;2023-04-03T05:37:01;2.3;;;9.6;;
74483;SDS011;62942;52.462;10.846;2023-04-03T05:38:11;2.3;;;7.1;;
74483;SDS011;62942;52.462;10.846;2023-04-03T05:39:11;2.2;;;8.3;;
74483;SDS011;62942;52.462;10.846;2023-04-03T05:40:11;2.2;;;7.1;;
74483;SDS011;62942;52.462;10.846;2023-04-03T05:41:21;2.4;;;8.7;;
74483;SDS011;62942;52.462;10.846;2023-04-03T05:42:21;2;;;7.8;;
74483;SDS011;62942;52.462;10.846;2023-04-03T05:43:21;2.1;;;6.7;;
74483;SDS011;62942;52.462;10.846;2023-04-03T05:44:31;2;;;8.7;;
74483;SDS011;62942;52.462;10.846;2023-04-03T05:45:31;2.1;;;8;;
74483;SDS011;62942;52.462;10.846;2023-04-03T05:46:31;2.3;;;9.2;;
74483;SDS011;62942;52.462;10.846;2023-04-03T05:47:41;2.2;;;8.1;;
74483;SDS011;62942;52.462;10.846;2023-04-03T05:48:41;2.2;;;9.9;;
74483;SDS011;62942;52.462;10.846;2023-04-03T05:49:41;2;;;7.5;;
74483;SDS011;62942;52.462;10.846;2023-04-03T05:50:51;1.8;;;6.4;;
74483;SDS011;62942;52.462;10.846;2023-04-03T05:51:51;2;;;8;;
74483;SDS011;62942;52.462;10.846;2023-04-03T05:53:01;2;;;7.7;;
74483;SDS011;62942;52.462;10.846;2023-04-03T05:54:03;2.1;;;6.3;;
74483;SDS011;62942;52.462;10.846;2023-04-03T05:55:11;2.2;;;8;;
74483;SDS011;62942;52.462;10.846;2023-04-03T05:56:21;1.8;;;6.2;;
74483;SDS011;62942;52.462;10.846;2023-04-03T05:57:21;1.9;;;7;;
74483;SDS011;62942;52.462;10.846;2023-04-03T05:58:31;2.1;;;8.3;;
74483;SDS011;62942;52.462;10.846;2023-04-03T05:59:41;1.9;;;6.2;;
74483;SDS011;62942;52.462;10.846;2023-04-03T06:00:41;2.1;;;8.3;;
74483;SDS011;62942;52.462;10.846;2023-04-03T06:01:51;1.7;;;6.5;;
74483;SDS011;62942;52.462;10.846;2023-04-03T06:02:51;1.7;;;6.8;;
74483;SDS011;62942;52.462;10.846;2023-04-03T06:04:01;2;;;7.8;;
74483;SDS011;62942;52.462;10.846;2023-04-03T06:05:11;1.6;;;6.2;;
74483;SDS011;62942;52.462;10.846;2023-04-03T06:06:21;1.7;;;5.2;;
74483;SDS011;62942;52.462;10.846;2023-04-03T06:07:31;1.9;;;8.2;;
74483;SDS011;62942;52.462;10.846;2023-04-03T06:08:41;1.9;;;6.7;;
74483;SDS011;62942;52.462;10.846;2023-04-03T06:09:51;1.7;;;5.8;;
74483;SDS011;62942;52.462;10.846;2023-04-03T06:11:01;1.8;;;7.1;;
74483;SDS011;62942;52.462;10.846;2023-04-03T06:12:11;1.8;;;5.9;;
74483;SDS011;62942;52.462;10.846;2023-04-03T06:13:21;1.7;;;6.2;;
74483;SDS011;62942;52.462;10.846;2023-04-03T06:14:31;1.6;;;6.5;;
74483;SDS011;62942;52.462;10.846;2023-04-03T06:15:41;1.7;;;7.5;;
74483;SDS011;62942;52.462;10.846;2023-04-03T06:16:51;1.9;;;7.2;;
74483;SDS011;62942;52.462;10.846;2023-04-03T06:18:01;1.9;;;5.7;;
74483;SDS011;62942;52.462;10.846;2023-04-03T06:19:01;1.6;;;5.1;;
74483;SDS011;62942;52.462;10.846;2023-04-03T06:20:11;1.7;;;5.7;;
74483;SDS011;62942;52.462;10.846;2023-04-03T06:21:21;1.6;;;4.8;;
74483;SDS011;62942;52.462;10.846;2023-04-03T06:22:31;1.8;;;6.9;;
74483;SDS011;62942;52.462;10.846;2023-04-03T06:23:31;1.5;;;4.7;;
74483;SDS011;62942;52.462;10.846;2023-04-03T06:24:41;1.7;;;6.2;;
74483;SDS011;62942;52.462;10.846;2023-04-03T06:25:51;1.5;;;5.9;;
74483;SDS011;62942;52.462;10.846;2023-04-03T06:27:01;1.8;;;6.9;;
74483;SDS011;62942;52.462;10.846;2023-04-03T06:28:01;1.8;;;7.6;;
74483;SDS011;62942;52.462;10.846;2023-04-03T06:29:11;1.7;;;7.2;;
74483;SDS011;62942;52.462;10.846;2023-04-03T06:30:21;1.7;;;6.5;;
74483;SDS011;62942;52.462;10.846;2023-04-03T06:31:31;1.5;;;4.7;;
74483;SDS011;62942;52.462;10.846;2023-04-03T06:32:41;1.7;;;5.8;;
74483;SDS011;62942;52.462;10.846;2023-04-03T06:33:51;1.5;;;5.9;;
74483;SDS011;62942;52.462;10.846;2023-04-03T06:34:51;1.5;;;5.6;;
74483;SDS011;62942;52.462;10.846;2023-04-03T06:35:55;1.6;;;6.7;;
74483;SDS011;62942;52.462;10.846;2023-04-03T06:37:01;1.7;;;5;;
74483;SDS011;62942;52.462;10.846;2023-04-03T06:38:11;1.6;;;5.6;;
74483;SDS011;62942;52.462;10.846;2023-04-03T06:39:21;1.4;;;5;;
74483;SDS011;62942;52.462;10.846;2023-04-03T06:40:31;1.6;;;6;;
74483;SDS011;62942;52.462;10.846;2023-04-03T06:41:41;1.6;;;4.6;;
74483;SDS011;62942;52.462;10.846;2023-04-03T06:42:51;1.8;;;6.3;;
74483;SDS011;62942;52.462;10.846;2023-04-03T06:43:51;1.9;;;7.1;;
74483;SDS011;62942;52.462;10.846;2023-04-03T06:45:01;1.5;;;5.2;;
74483;SDS011;62942;52.462;10.846;2023-04-03T06:46:13;1.6;;;4.7;;